sensor_id;sensor_type;location;lat;lon;timestamp;temperature;humidity
11214;DHT22;5664;48.606;13.456;2023-11-21T00:00:32;18.60;93.60
11214;DHT22;5664;48.606;13.456;2023-11-21T00:02:58;18.60;93.60
11214;DHT22;5664;48.606;13.456;2023-11-21T00:05:23;18.60;93.60
11214;DHT22;5664;48.606;13.456;2023-11-21T00:07:49;18.50;93.70
11214;DHT22;5664;48.606;13.456;2023-11-21T00:10:14;18.50;93.60
11214;DHT22;5664;48.606;13.456;2023-11-21T00:12:41;18.50;93.70
11214;DHT22;5664;48.606;13.456;2023-11-21T00:15:07;18.50;93.60
11214;DHT22;5664;48.606;13.456;2023-11-21T00:17:36;18.50;93.60
11214;DHT22;5664;48.606;13.456;2023-11-21T00:20:02;18.50;93.60
11214;DHT22;5664;48.606;13.456;2023-11-21T00:22:31;18.50;93.70
11214;DHT22;5664;48.606;13.456;2023-11-21T00:24:57;18.50;93.70
11214;DHT22;5664;48.606;13.456;2023-11-21T00:27:23;18.40;93.60
11214;DHT22;5664;48.606;13.456;2023-11-21T00:29:48;18.40;93.70
11214;DHT22;5664;48.606;13.456;2023-11-21T00:32:14;18.40;93.70
11214;DHT22;5664;48.606;13.456;2023-11-21T00:34:39;18.40;93.70
11214;DHT22;5664;48.606;13.456;2023-11-21T00:37:05;18.40;93.70
11214;DHT22;5664;48.606;13.456;2023-11-21T00:39:30;18.30;93.70
11214;DHT22;5664;48.606;13.456;2023-11-21T00:41:57;18.30;93.70
11214;DHT22;5664;48.606;13.456;2023-11-21T00:44:22;18.30;93.40
11214;DHT22;5664;48.606;13.456;2023-11-21T00:46:48;18.30;93.70
11214;DHT22;5664;48.606;13.456;2023-11-21T00:49:13;18.30;93.70
11214;DHT22;5664;48.606;13.456;2023-11-21T00:51:39;18.30;93.80
11214;DHT22;5664;48.606;13.456;2023-11-21T00:54:04;18.30;93.80
11214;DHT22;5664;48.606;13.456;2023-11-21T00:56:30;18.30;93.70
11214;DHT22;5664;48.606;13.456;2023-11-21T00:58:55;18.20;93.70
11214;DHT22;5664;48.606;13.456;2023-11-21T01:01:21;18.20;93.70
11214;DHT22;5664;48.606;13.456;2023-11-21T01:03:49;18.20;93.70
11214;DHT22;5664;48.606;13.456;2023-11-21T01:06:15;18.30;93.80
11214;DHT22;5664;48.606;13.456;2023-11-21T01:08:40;18.20;93.80
11214;DHT22;5664;48.606;13.456;2023-11-21T01:11:06;18.20;93.70
11214;DHT22;5664;48.606;13.456;2023-11-21T01:13:33;18.20;93.80
11214;DHT22;5664;48.606;13.456;2023-11-21T01:15:59;18.10;93.80
11214;DHT22;5664;48.606;13.456;2023-11-21T01:18:24;18.10;93.80
11214;DHT22;5664;48.606;13.456;2023-11-21T01:20:54;18.10;93.70
11214;DHT22;5664;48.606;13.456;2023-11-21T01:23:19;18.10;93.80
11214;DHT22;5664;48.606;13.456;2023-11-21T01:25:45;18.10;93.80
11214;DHT22;5664;48.606;13.456;2023-11-21T01:28:10;18.10;93.80
11214;DHT22;5664;48.606;13.456;2023-11-21T01:30:36;18.10;93.90
11214;DHT22;5664;48.606;13.456;2023-11-21T01:33:02;18.00;93.80
11214;DHT22;5664;48.606;13.456;2023-11-21T01:35:28;18.00;93.80
11214;DHT22;5664;48.606;13.456;2023-11-21T01:37:53;18.00;93.80
11214;DHT22;5664;48.606;13.456;2023-11-21T01:40:19;18.00;93.80
11214;DHT22;5664;48.606;13.456;2023-11-21T01:42:47;18.00;93.80
11214;DHT22;5664;48.606;13.456;2023-11-21T01:45:14;18.00;93.90
11214;DHT22;5664;48.606;13.456;2023-11-21T01:47:40;18.00;93.80
11214;DHT22;5664;48.606;13.456;2023-11-21T01:50:09;17.90;93.80
11214;DHT22;5664;48.606;13.456;2023-11-21T01:52:37;17.90;93.80
11214;DHT22;5664;48.606;13.456;2023-11-21T01:55:04;17.90;93.90
11214;DHT22;5664;48.606;13.456;2023-11-21T01:57:30;17.90;93.80
11214;DHT22;5664;48.606;13.456;2023-11-21T01:59:56;17.90;93.90
11214;DHT22;5664;48.606;13.456;2023-11-21T02:02:24;17.90;94.00
11214;DHT22;5664;48.606;13.456;2023-11-21T02:04:49;17.90;95.00
11214;DHT22;5664;48.606;13.456;2023-11-21T02:07:15;17.90;93.90
11214;DHT22;5664;48.606;13.456;2023-11-21T02:09:40;17.80;93.90
11214;DHT22;5664;48.606;13.456;2023-11-21T02:12:07;17.80;93.90
11214;DHT22;5664;48.606;13.456;2023-11-21T02:14:34;17.80;94.00
11214;DHT22;5664;48.606;13.456;2023-11-21T02:16:59;17.80;94.00
11214;DHT22;5664;48.606;13.456;2023-11-21T02:19:26;17.80;93.90
11214;DHT22;5664;48.606;13.456;2023-11-21T02:21:52;17.80;93.90
11214;DHT22;5664;48.606;13.456;2023-11-21T02:24:21;17.80;93.90
11214;DHT22;5664;48.606;13.456;2023-11-21T02:26:47;17.70;93.80
11214;DHT22;5664;48.606;13.456;2023-11-21T02:29:13;17.70;93.90
11214;DHT22;5664;48.606;13.456;2023-11-21T02:31:39;17.70;94.00
11214;DHT22;5664;48.606;13.456;2023-11-21T02:34:16;17.70;94.00
11214;DHT22;5664;48.606;13.456;2023-11-21T02:36:42;17.70;93.90
11214;DHT22;5664;48.606;13.456;2023-11-21T02:39:08;17.70;94.00
11214;DHT22;5664;48.606;13.456;2023-11-21T02:41:33;17.70;94.00
11214;DHT22;5664;48.606;13.456;2023-11-21T02:44:00;17.70;94.10
11214;DHT22;5664;48.606;13.456;2023-11-21T02:46:25;17.60;94.10
11214;DHT22;5664;48.606;13.456;2023-11-21T02:48:51;17.60;94.10
11214;DHT22;5664;48.606;13.456;2023-11-21T02:51:18;17.90;94.10
11214;DHT22;5664;48.606;13.456;2023-11-21T02:53:44;17.60;94.10
11214;DHT22;5664;48.606;13.456;2023-11-21T02:56:09;17.60;94.20
11214;DHT22;5664;48.606;13.456;2023-11-21T02:58:35;17.60;94.10
11214;DHT22;5664;48.606;13.456;2023-11-21T03:01:00;17.60;94.20
11214;DHT22;5664;48.606;13.456;2023-11-21T03:03:26;17.60;94.10
11214;DHT22;5664;48.606;13.456;2023-11-21T03:05:51;17.60;94.20
11214;DHT22;5664;48.606;13.456;2023-11-21T03:08:17;17.60;94.20
11214;DHT22;5664;48.606;13.456;2023-11-21T03:10:42;17.50;94.20
11214;DHT22;5664;48.606;13.456;2023-11-21T03:13:08;17.50;94.20
11214;DHT22;5664;48.606;13.456;2023-11-21T03:15:33;17.50;94.10
11214;DHT22;5664;48.606;13.456;2023-11-21T03:18:00;17.50;94.10
11214;DHT22;5664;48.606;13.456;2023-11-21T03:20:25;17.50;94.20
11214;DHT22;5664;48.606;13.456;2023-11-21T03:22:51;17.50;94.20
11214;DHT22;5664;48.606;13.456;2023-11-21T03:25:16;17.50;94.20
11214;DHT22;5664;48.606;13.456;2023-11-21T03:27:42;17.50;94.20
11214;DHT22;5664;48.606;13.456;2023-11-21T03:30:09;17.50;94.20
11214;DHT22;5664;48.606;13.456;2023-11-21T03:32:35;17.50;94.20
11214;DHT22;5664;48.606;13.456;2023-11-21T03:35:00;17.40;94.20
11214;DHT22;5664;48.606;13.456;2023-11-21T03:37:27;17.40;94.20
11214;DHT22;5664;48.606;13.456;2023-11-21T03:39:53;17.50;94.30
11214;DHT22;5664;48.606;13.456;2023-11-21T03:42:20;17.40;94.20
11214;DHT22;5664;48.606;13.456;2023-11-21T03:44:45;17.40;94.30
11214;DHT22;5664;48.606;13.456;2023-11-21T03:47:11;17.40;94.30
11214;DHT22;5664;48.606;13.456;2023-11-21T03:49:37;17.40;94.30
11214;DHT22;5664;48.606;13.456;2023-11-21T03:52:02;16.70;94.00
11214;DHT22;5664;48.606;13.456;2023-11-21T03:54:28;17.30;94.40
11214;DHT22;5664;48.606;13.456;2023-11-21T03:56:53;17.30;94.40
11214;DHT22;5664;48.606;13.456;2023-11-21T03:59:19;17.40;95.30
11214;DHT22;5664;48.606;13.456;2023-11-21T04:01:44;17.30;94.30
11214;DHT22;5664;48.606;13.456;2023-11-21T04:04:10;17.30;94.40
11214;DHT22;5664;48.606;13.456;2023-11-21T04:06:35;17.30;94.30
11214;DHT22;5664;48.606;13.456;2023-11-21T04:09:02;17.30;94.40
11214;DHT22;5664;48.606;13.456;2023-11-21T04:11:29;17.30;94.50
11214;DHT22;5664;48.606;13.456;2023-11-21T04:13:55;17.30;94.40
11214;DHT22;5664;48.606;13.456;2023-11-21T04:16:21;17.30;94.40
11214;DHT22;5664;48.606;13.456;2023-11-21T04:18:46;17.30;94.40
11214;DHT22;5664;48.606;13.456;2023-11-21T04:21:12;17.20;94.50
11214;DHT22;5664;48.606;13.456;2023-11-21T04:23:37;17.20;94.50
11214;DHT22;5664;48.606;13.456;2023-11-21T04:26:03;17.30;94.50
11214;DHT22;5664;48.606;13.456;2023-11-21T04:28:28;17.20;94.50
11214;DHT22;5664;48.606;13.456;2023-11-21T04:30:54;17.20;94.50
11214;DHT22;5664;48.606;13.456;2023-11-21T04:33:19;17.20;94.50
11214;DHT22;5664;48.606;13.456;2023-11-21T04:35:45;17.20;94.50
11214;DHT22;5664;48.606;13.456;2023-11-21T04:38:11;17.20;94.50
11214;DHT22;5664;48.606;13.456;2023-11-21T04:40:37;17.20;94.50
11214;DHT22;5664;48.606;13.456;2023-11-21T04:43:02;17.20;94.50
11214;DHT22;5664;48.606;13.456;2023-11-21T04:45:29;17.10;94.50
11214;DHT22;5664;48.606;13.456;2023-11-21T04:47:54;17.40;94.70
11214;DHT22;5664;48.606;13.456;2023-11-21T04:50:20;17.10;94.60
11214;DHT22;5664;48.606;13.456;2023-11-21T04:52:45;17.10;94.50
11214;DHT22;5664;48.606;13.456;2023-11-21T04:55:11;17.10;94.60
11214;DHT22;5664;48.606;13.456;2023-11-21T04:57:36;17.10;94.60
11214;DHT22;5664;48.606;13.456;2023-11-21T05:00:05;17.10;94.70
11214;DHT22;5664;48.606;13.456;2023-11-21T05:02:31;17.10;94.60
11214;DHT22;5664;48.606;13.456;2023-11-21T05:04:57;17.10;94.60
11214;DHT22;5664;48.606;13.456;2023-11-21T05:07:23;17.10;94.70
11214;DHT22;5664;48.606;13.456;2023-11-21T05:09:49;17.10;96.00
11214;DHT22;5664;48.606;13.456;2023-11-21T05:12:15;17.20;94.70
11214;DHT22;5664;48.606;13.456;2023-11-21T05:14:40;17.10;94.70
11214;DHT22;5664;48.606;13.456;2023-11-21T05:17:07;17.40;94.80
11214;DHT22;5664;48.606;13.456;2023-11-21T05:19:33;17.30;94.80
11214;DHT22;5664;48.606;13.456;2023-11-21T05:21:59;17.00;94.70
11214;DHT22;5664;48.606;13.456;2023-11-21T05:24:26;17.10;94.80
11214;DHT22;5664;48.606;13.456;2023-11-21T05:26:51;17.00;94.70
11214;DHT22;5664;48.606;13.456;2023-11-21T05:29:21;17.00;94.70
11214;DHT22;5664;48.606;13.456;2023-11-21T05:31:46;17.00;94.80
11214;DHT22;5664;48.606;13.456;2023-11-21T05:34:12;16.90;94.70
11214;DHT22;5664;48.606;13.456;2023-11-21T05:36:37;17.00;94.80
11214;DHT22;5664;48.606;13.456;2023-11-21T05:39:03;17.00;94.90
11214;DHT22;5664;48.606;13.456;2023-11-21T05:41:29;16.90;94.80
11214;DHT22;5664;48.606;13.456;2023-11-21T05:43:55;17.00;94.80
11214;DHT22;5664;48.606;13.456;2023-11-21T05:46:21;16.90;94.90
11214;DHT22;5664;48.606;13.456;2023-11-21T05:48:47;16.90;94.90
11214;DHT22;5664;48.606;13.456;2023-11-21T05:51:12;16.90;94.90
11214;DHT22;5664;48.606;13.456;2023-11-21T05:53:39;16.90;94.80
11214;DHT22;5664;48.606;13.456;2023-11-21T05:56:04;16.90;95.00
11214;DHT22;5664;48.606;13.456;2023-11-21T05:58:30;16.90;94.90
11214;DHT22;5664;48.606;13.456;2023-11-21T06:00:55;16.90;94.90
11214;DHT22;5664;48.606;13.456;2023-11-21T06:03:21;16.80;95.00
11214;DHT22;5664;48.606;13.456;2023-11-21T06:05:47;16.90;94.90
11214;DHT22;5664;48.606;13.456;2023-11-21T06:08:13;16.80;94.90
11214;DHT22;5664;48.606;13.456;2023-11-21T06:10:42;16.80;94.90
11214;DHT22;5664;48.606;13.456;2023-11-21T06:13:09;16.80;94.90
11214;DHT22;5664;48.606;13.456;2023-11-21T06:15:37;16.80;94.90
11214;DHT22;5664;48.606;13.456;2023-11-21T06:18:03;16.80;95.00
11214;DHT22;5664;48.606;13.456;2023-11-21T06:20:28;16.80;95.00
11214;DHT22;5664;48.606;13.456;2023-11-21T06:22:53;16.90;95.00
11214;DHT22;5664;48.606;13.456;2023-11-21T06:25:20;16.80;95.70
11214;DHT22;5664;48.606;13.456;2023-11-21T06:27:46;16.80;95.00
11214;DHT22;5664;48.606;13.456;2023-11-21T06:30:13;16.80;95.00
11214;DHT22;5664;48.606;13.456;2023-11-21T06:32:39;16.80;95.20
11214;DHT22;5664;48.606;13.456;2023-11-21T06:35:05;16.80;95.70
11214;DHT22;5664;48.606;13.456;2023-11-21T06:37:31;16.80;96.00
11214;DHT22;5664;48.606;13.456;2023-11-21T06:39:57;16.90;96.20
11214;DHT22;5664;48.606;13.456;2023-11-21T06:42:23;16.90;96.10
11214;DHT22;5664;48.606;13.456;2023-11-21T06:44:49;17.00;96.10
11214;DHT22;5664;48.606;13.456;2023-11-21T06:47:17;17.00;96.00
11214;DHT22;5664;48.606;13.456;2023-11-21T06:49:42;17.00;96.00
11214;DHT22;5664;48.606;13.456;2023-11-21T06:52:08;17.00;95.80
11214;DHT22;5664;48.606;13.456;2023-11-21T06:54:34;17.00;93.70
11214;DHT22;5664;48.606;13.456;2023-11-21T06:57:00;16.80;90.40
11214;DHT22;5664;48.606;13.456;2023-11-21T06:59:25;16.40;89.50
11214;DHT22;5664;48.606;13.456;2023-11-21T07:01:51;16.30;90.40
11214;DHT22;5664;48.606;13.456;2023-11-21T07:04:16;16.30;91.90
11214;DHT22;5664;48.606;13.456;2023-11-21T07:06:42;16.20;92.80
11214;DHT22;5664;48.606;13.456;2023-11-21T07:09:08;16.30;93.50
11214;DHT22;5664;48.606;13.456;2023-11-21T07:11:37;16.30;94.00
11214;DHT22;5664;48.606;13.456;2023-11-21T07:14:06;16.30;94.10
11214;DHT22;5664;48.606;13.456;2023-11-21T07:16:34;16.40;94.50
11214;DHT22;5664;48.606;13.456;2023-11-21T07:19:00;16.40;94.70
11214;DHT22;5664;48.606;13.456;2023-11-21T07:21:25;16.40;94.70
11214;DHT22;5664;48.606;13.456;2023-11-21T07:23:51;16.40;95.00
11214;DHT22;5664;48.606;13.456;2023-11-21T07:26:17;16.40;94.90
11214;DHT22;5664;48.606;13.456;2023-11-21T07:28:42;16.40;94.90
11214;DHT22;5664;48.606;13.456;2023-11-21T07:31:08;16.40;95.00
11214;DHT22;5664;48.606;13.456;2023-11-21T07:33:33;16.40;95.10
11214;DHT22;5664;48.606;13.456;2023-11-21T07:35:59;16.50;95.10
11214;DHT22;5664;48.606;13.456;2023-11-21T07:38:24;16.50;95.20
11214;DHT22;5664;48.606;13.456;2023-11-21T07:40:50;16.50;95.20
11214;DHT22;5664;48.606;13.456;2023-11-21T07:43:15;16.50;95.30
11214;DHT22;5664;48.606;13.456;2023-11-21T07:45:41;16.50;95.20
11214;DHT22;5664;48.606;13.456;2023-11-21T07:48:07;16.50;95.30
11214;DHT22;5664;48.606;13.456;2023-11-21T07:50:32;16.50;95.40
11214;DHT22;5664;48.606;13.456;2023-11-21T07:52:58;16.50;95.40
11214;DHT22;5664;48.606;13.456;2023-11-21T07:55:24;16.50;95.50
11214;DHT22;5664;48.606;13.456;2023-11-21T07:57:50;16.50;95.50
11214;DHT22;5664;48.606;13.456;2023-11-21T08:00:15;16.50;95.60
11214;DHT22;5664;48.606;13.456;2023-11-21T08:02:41;16.50;95.60
11214;DHT22;5664;48.606;13.456;2023-11-21T08:05:11;16.50;95.60
11214;DHT22;5664;48.606;13.456;2023-11-21T08:07:37;16.50;95.60
11214;DHT22;5664;48.606;13.456;2023-11-21T08:10:02;16.50;95.70
11214;DHT22;5664;48.606;13.456;2023-11-21T08:12:30;16.60;95.70
11214;DHT22;5664;48.606;13.456;2023-11-21T08:14:55;16.50;95.70
11214;DHT22;5664;48.606;13.456;2023-11-21T08:17:21;16.50;95.80
11214;DHT22;5664;48.606;13.456;2023-11-21T08:19:46;16.50;95.80
11214;DHT22;5664;48.606;13.456;2023-11-21T08:22:17;16.50;95.90
11214;DHT22;5664;48.606;13.456;2023-11-21T08:24:43;16.50;95.80
11214;DHT22;5664;48.606;13.456;2023-11-21T08:27:09;16.50;95.90
11214;DHT22;5664;48.606;13.456;2023-11-21T08:29:34;16.50;96.00
11214;DHT22;5664;48.606;13.456;2023-11-21T08:32:01;16.50;95.90
11214;DHT22;5664;48.606;13.456;2023-11-21T08:34:27;16.50;94.60
11214;DHT22;5664;48.606;13.456;2023-11-21T08:36:54;16.50;94.40
11214;DHT22;5664;48.606;13.456;2023-11-21T08:39:19;16.50;95.70
11214;DHT22;5664;48.606;13.456;2023-11-21T08:41:45;16.50;95.80
11214;DHT22;5664;48.606;13.456;2023-11-21T08:44:11;16.60;96.20
11214;DHT22;5664;48.606;13.456;2023-11-21T08:46:36;16.70;96.40
11214;DHT22;5664;48.606;13.456;2023-11-21T08:49:03;16.70;96.30
11214;DHT22;5664;48.606;13.456;2023-11-21T08:51:28;16.80;96.30
11214;DHT22;5664;48.606;13.456;2023-11-21T08:53:54;16.90;96.30
11214;DHT22;5664;48.606;13.456;2023-11-21T08:56:20;16.90;96.20
11214;DHT22;5664;48.606;13.456;2023-11-21T08:58:45;17.00;96.20
11214;DHT22;5664;48.606;13.456;2023-11-21T09:01:12;17.00;96.10
11214;DHT22;5664;48.606;13.456;2023-11-21T09:03:38;17.10;96.10
11214;DHT22;5664;48.606;13.456;2023-11-21T09:06:03;17.20;96.20
11214;DHT22;5664;48.606;13.456;2023-11-21T09:08:29;17.30;96.30
11214;DHT22;5664;48.606;13.456;2023-11-21T09:10:55;17.40;96.30
11214;DHT22;5664;48.606;13.456;2023-11-21T09:13:20;17.30;96.30
11214;DHT22;5664;48.606;13.456;2023-11-21T09:15:46;17.60;96.40
11214;DHT22;5664;48.606;13.456;2023-11-21T09:18:13;17.60;96.40
11214;DHT22;5664;48.606;13.456;2023-11-21T09:20:38;17.70;96.50
11214;DHT22;5664;48.606;13.456;2023-11-21T09:23:04;17.80;96.40
11214;DHT22;5664;48.606;13.456;2023-11-21T09:25:29;17.90;96.40
11214;DHT22;5664;48.606;13.456;2023-11-21T09:27:54;18.00;96.30
11214;DHT22;5664;48.606;13.456;2023-11-21T09:30:21;18.00;96.30
11214;DHT22;5664;48.606;13.456;2023-11-21T09:32:47;18.10;96.20
11214;DHT22;5664;48.606;13.456;2023-11-21T09:35:12;18.20;96.30
11214;DHT22;5664;48.606;13.456;2023-11-21T09:37:39;18.30;96.30
11214;DHT22;5664;48.606;13.456;2023-11-21T09:40:05;18.30;96.20
11214;DHT22;5664;48.606;13.456;2023-11-21T09:42:40;18.40;96.10
11214;DHT22;5664;48.606;13.456;2023-11-21T09:45:21;18.60;96.10
11214;DHT22;5664;48.606;13.456;2023-11-21T09:47:49;18.50;96.00
11214;DHT22;5664;48.606;13.456;2023-11-21T09:50:16;18.60;96.00
11214;DHT22;5664;48.606;13.456;2023-11-21T09:55:27;18.80;95.90
11214;DHT22;5664;48.606;13.456;2023-11-21T09:57:55;18.80;95.90
11214;DHT22;5664;48.606;13.456;2023-11-21T10:00:22;18.90;95.80
11214;DHT22;5664;48.606;13.456;2023-11-21T10:02:49;18.90;95.80
11214;DHT22;5664;48.606;13.456;2023-11-21T10:05:16;19.00;95.70
11214;DHT22;5664;48.606;13.456;2023-11-21T10:07:45;19.00;95.70
11214;DHT22;5664;48.606;13.456;2023-11-21T10:10:12;19.10;95.60
11214;DHT22;5664;48.606;13.456;2023-11-21T10:12:38;19.10;95.60
11214;DHT22;5664;48.606;13.456;2023-11-21T10:15:07;19.20;95.60
11214;DHT22;5664;48.606;13.456;2023-11-21T10:17:33;19.20;95.50
11214;DHT22;5664;48.606;13.456;2023-11-21T10:20:08;19.30;95.50
11214;DHT22;5664;48.606;13.456;2023-11-21T10:22:40;19.30;95.30
11214;DHT22;5664;48.606;13.456;2023-11-21T10:25:06;19.30;95.20
11214;DHT22;5664;48.606;13.456;2023-11-21T10:27:33;19.40;95.30
11214;DHT22;5664;48.606;13.456;2023-11-21T10:30:02;19.40;95.20
11214;DHT22;5664;48.606;13.456;2023-11-21T10:32:29;19.40;95.20
11214;DHT22;5664;48.606;13.456;2023-11-21T10:34:58;19.50;95.50
11214;DHT22;5664;48.606;13.456;2023-11-21T10:37:34;19.50;94.70
11214;DHT22;5664;48.606;13.456;2023-11-21T10:40:00;19.50;95.00
11214;DHT22;5664;48.606;13.456;2023-11-21T10:42:26;19.50;95.00
11214;DHT22;5664;48.606;13.456;2023-11-21T10:44:55;19.60;95.00
11214;DHT22;5664;48.606;13.456;2023-11-21T10:47:21;19.60;94.80
11214;DHT22;5664;48.606;13.456;2023-11-21T10:49:51;19.70;94.90
11214;DHT22;5664;48.606;13.456;2023-11-21T10:52:19;19.70;94.70
11214;DHT22;5664;48.606;13.456;2023-11-21T10:54:45;19.70;94.70
11214;DHT22;5664;48.606;13.456;2023-11-21T10:57:11;19.80;94.70
11214;DHT22;5664;48.606;13.456;2023-11-21T10:59:40;19.80;94.60
11214;DHT22;5664;48.606;13.456;2023-11-21T11:02:10;19.90;94.60
11214;DHT22;5664;48.606;13.456;2023-11-21T11:04:38;19.90;94.50
11214;DHT22;5664;48.606;13.456;2023-11-21T11:07:04;19.90;94.50
11214;DHT22;5664;48.606;13.456;2023-11-21T11:09:30;19.90;94.40
11214;DHT22;5664;48.606;13.456;2023-11-21T11:11:57;19.90;94.40
11214;DHT22;5664;48.606;13.456;2023-11-21T11:14:24;20.00;94.40
11214;DHT22;5664;48.606;13.456;2023-11-21T11:16:53;20.00;94.30
11214;DHT22;5664;48.606;13.456;2023-11-21T11:19:19;20.00;94.30
11214;DHT22;5664;48.606;13.456;2023-11-21T11:26:51;20.20;94.60
11214;DHT22;5664;48.606;13.456;2023-11-21T11:31:59;20.30;94.80
11214;DHT22;5664;48.606;13.456;2023-11-21T11:34:28;20.40;94.80
11214;DHT22;5664;48.606;13.456;2023-11-21T11:37:02;20.40;94.80
11214;DHT22;5664;48.606;13.456;2023-11-21T11:39:36;20.40;94.70
11214;DHT22;5664;48.606;13.456;2023-11-21T11:42:02;20.50;94.80
11214;DHT22;5664;48.606;13.456;2023-11-21T11:45:02;20.50;94.80
11214;DHT22;5664;48.606;13.456;2023-11-21T11:50:05;20.50;94.50
11214;DHT22;5664;48.606;13.456;2023-11-21T11:52:36;20.50;94.30
11214;DHT22;5664;48.606;13.456;2023-11-21T11:55:03;20.50;94.30
11214;DHT22;5664;48.606;13.456;2023-11-21T11:57:30;20.50;94.80
11214;DHT22;5664;48.606;13.456;2023-11-21T12:00:06;20.50;94.50
11214;DHT22;5664;48.606;13.456;2023-11-21T12:02:35;20.60;94.50
11214;DHT22;5664;48.606;13.456;2023-11-21T12:05:01;20.60;94.50
11214;DHT22;5664;48.606;13.456;2023-11-21T12:07:38;20.60;94.50
11214;DHT22;5664;48.606;13.456;2023-11-21T12:10:04;20.60;94.40
11214;DHT22;5664;48.606;13.456;2023-11-21T12:12:30;20.60;94.50
11214;DHT22;5664;48.606;13.456;2023-11-21T12:14:58;20.60;94.40
11214;DHT22;5664;48.606;13.456;2023-11-21T12:17:24;21.10;94.40
11214;DHT22;5664;48.606;13.456;2023-11-21T12:19:49;21.00;95.20
11214;DHT22;5664;48.606;13.456;2023-11-21T12:22:17;20.70;94.20
11214;DHT22;5664;48.606;13.456;2023-11-21T12:24:44;20.70;94.20
11214;DHT22;5664;48.606;13.456;2023-11-21T12:27:09;20.70;94.10
11214;DHT22;5664;48.606;13.456;2023-11-21T12:29:34;20.70;94.10
11214;DHT22;5664;48.606;13.456;2023-11-21T12:32:03;20.70;94.10
11214;DHT22;5664;48.606;13.456;2023-11-21T12:34:28;20.70;94.00
11214;DHT22;5664;48.606;13.456;2023-11-21T12:36:54;20.60;94.00
11214;DHT22;5664;48.606;13.456;2023-11-21T12:39:20;20.60;94.00
11214;DHT22;5664;48.606;13.456;2023-11-21T12:41:48;20.60;94.00
11214;DHT22;5664;48.606;13.456;2023-11-21T12:44:13;20.70;94.00
11214;DHT22;5664;48.606;13.456;2023-11-21T12:46:41;20.60;94.00
11214;DHT22;5664;48.606;13.456;2023-11-21T12:49:07;20.60;94.00
11214;DHT22;5664;48.606;13.456;2023-11-21T12:51:32;20.60;94.10
11214;DHT22;5664;48.606;13.456;2023-11-21T12:53:59;20.60;94.00
11214;DHT22;5664;48.606;13.456;2023-11-21T12:56:24;20.60;94.00
11214;DHT22;5664;48.606;13.456;2023-11-21T12:58:50;20.60;94.00
11214;DHT22;5664;48.606;13.456;2023-11-21T13:01:19;20.60;94.00
11214;DHT22;5664;48.606;13.456;2023-11-21T13:03:47;20.60;93.90
11214;DHT22;5664;48.606;13.456;2023-11-21T13:06:14;20.60;93.90
11214;DHT22;5664;48.606;13.456;2023-11-21T13:08:40;20.60;93.90
11214;DHT22;5664;48.606;13.456;2023-11-21T13:11:05;20.60;93.90
11214;DHT22;5664;48.606;13.456;2023-11-21T13:13:31;20.60;93.90
11214;DHT22;5664;48.606;13.456;2023-11-21T13:15:58;20.60;93.90
11214;DHT22;5664;48.606;13.456;2023-11-21T13:18:29;20.60;93.90
11214;DHT22;5664;48.606;13.456;2023-11-21T13:20:57;20.60;94.00
11214;DHT22;5664;48.606;13.456;2023-11-21T13:23:23;20.60;93.90
11214;DHT22;5664;48.606;13.456;2023-11-21T13:25:49;20.60;93.90
11214;DHT22;5664;48.606;13.456;2023-11-21T13:28:15;20.60;94.10
11214;DHT22;5664;48.606;13.456;2023-11-21T13:30:41;20.60;94.10
11214;DHT22;5664;48.606;13.456;2023-11-21T13:33:07;20.70;94.10
11214;DHT22;5664;48.606;13.456;2023-11-21T13:35:34;20.60;94.10
11214;DHT22;5664;48.606;13.456;2023-11-21T13:38:13;20.70;94.10
11214;DHT22;5664;48.606;13.456;2023-11-21T13:40:40;20.60;92.00
11214;DHT22;5664;48.606;13.456;2023-11-21T13:43:11;20.50;91.90
11214;DHT22;5664;48.606;13.456;2023-11-21T13:45:38;20.60;93.10
11214;DHT22;5664;48.606;13.456;2023-11-21T13:48:07;20.50;93.40
11214;DHT22;5664;48.606;13.456;2023-11-21T13:50:36;20.60;93.50
11214;DHT22;5664;48.606;13.456;2023-11-21T13:53:01;20.60;93.60
11214;DHT22;5664;48.606;13.456;2023-11-21T13:55:44;20.60;93.50
11214;DHT22;5664;48.606;13.456;2023-11-21T13:58:10;20.70;93.60
11214;DHT22;5664;48.606;13.456;2023-11-21T14:00:45;20.60;93.50
11214;DHT22;5664;48.606;13.456;2023-11-21T14:03:14;20.70;93.60
11214;DHT22;5664;48.606;13.456;2023-11-21T14:05:46;20.70;93.90
11214;DHT22;5664;48.606;13.456;2023-11-21T14:08:19;20.70;93.60
11214;DHT22;5664;48.606;13.456;2023-11-21T14:10:49;20.70;93.50
11214;DHT22;5664;48.606;13.456;2023-11-21T14:13:18;20.70;93.50
11214;DHT22;5664;48.606;13.456;2023-11-21T14:15:44;20.80;93.60
11214;DHT22;5664;48.606;13.456;2023-11-21T14:18:11;20.70;93.60
11214;DHT22;5664;48.606;13.456;2023-11-21T14:20:39;20.70;93.60
11214;DHT22;5664;48.606;13.456;2023-11-21T14:23:06;20.70;93.60
11214;DHT22;5664;48.606;13.456;2023-11-21T14:25:32;20.70;93.60
11214;DHT22;5664;48.606;13.456;2023-11-21T14:27:58;20.70;93.60
11214;DHT22;5664;48.606;13.456;2023-11-21T14:30:24;20.70;93.60
11214;DHT22;5664;48.606;13.456;2023-11-21T14:32:50;20.70;93.70
11214;DHT22;5664;48.606;13.456;2023-11-21T14:35:16;20.70;93.70
11214;DHT22;5664;48.606;13.456;2023-11-21T14:37:42;20.70;93.70
11214;DHT22;5664;48.606;13.456;2023-11-21T14:40:08;20.70;93.70
11214;DHT22;5664;48.606;13.456;2023-11-21T14:42:34;20.70;93.70
11214;DHT22;5664;48.606;13.456;2023-11-21T14:45:03;20.70;93.70
11214;DHT22;5664;48.606;13.456;2023-11-21T14:47:32;20.70;93.70
11214;DHT22;5664;48.606;13.456;2023-11-21T14:49:58;20.70;93.70
11214;DHT22;5664;48.606;13.456;2023-11-21T14:52:25;20.70;93.80
11214;DHT22;5664;48.606;13.456;2023-11-21T14:55:00;20.70;93.70
11214;DHT22;5664;48.606;13.456;2023-11-21T14:57:44;20.70;93.80
11214;DHT22;5664;48.606;13.456;2023-11-21T15:00:18;20.60;93.80
11214;DHT22;5664;48.606;13.456;2023-11-21T15:02:59;20.60;93.80
11214;DHT22;5664;48.606;13.456;2023-11-21T15:05:25;20.70;93.90
11214;DHT22;5664;48.606;13.456;2023-11-21T15:07:52;20.60;93.80
11214;DHT22;5664;48.606;13.456;2023-11-21T15:10:21;20.60;94.00
11214;DHT22;5664;48.606;13.456;2023-11-21T15:12:54;20.60;93.90
11214;DHT22;5664;48.606;13.456;2023-11-21T15:15:20;20.30;93.80
11214;DHT22;5664;48.606;13.456;2023-11-21T15:17:46;20.60;94.00
11214;DHT22;5664;48.606;13.456;2023-11-21T15:20:12;20.50;93.90
11214;DHT22;5664;48.606;13.456;2023-11-21T15:22:46;20.50;93.90
11214;DHT22;5664;48.606;13.456;2023-11-21T15:25:12;20.50;94.00
11214;DHT22;5664;48.606;13.456;2023-11-21T15:27:38;20.50;94.00
11214;DHT22;5664;48.606;13.456;2023-11-21T15:30:04;20.50;94.00
11214;DHT22;5664;48.606;13.456;2023-11-21T15:32:30;20.50;94.00
11214;DHT22;5664;48.606;13.456;2023-11-21T15:34:56;20.50;94.10
11214;DHT22;5664;48.606;13.456;2023-11-21T15:37:21;20.50;94.00
11214;DHT22;5664;48.606;13.456;2023-11-21T15:39:46;20.50;94.10